Airport Name : Pearce

Other Name : Pearce

ICAO : YPEA

IATA :

FAA :

Latitude : -31.667778

Longitude : 116.015

Country : Australia

Local Date and Time : 04 Dec 2020 10:26

 

TAF (Terminal Aerodrome Forecast)

TAF YPEA 040208Z 0403/0418 22015KT 9999 SCT040 FM041100 21011KT 9999 SCT030

 

METAR (METeorological Aerodrome Report)

YPEA 040200Z 23012KT 9999 SCT038 BKN045 22/13 Q1015

YPEA 040130Z 23013KT 9999 BKN040 21/11 Q1015

YPEA 040100Z 22010KT 180V240 9999 BKN037 20/11 Q1015

YPEA 040030Z 21009KT 9999 FEW028 BKN035 21/13 Q1015

YPEA 040000Z 18006KT 150V220 9999 SCT040 19/12 Q1015

YPEA 032330Z 17006KT 9999 SCT040 18/12 Q1015

YPEA 032300Z 16006KT 140V200 9000 BKN040 18/12 Q1015

YPEA 032230Z 16006KT 9000 SCT035 16/12 Q1015

To Charter a Jet Click here.